X  Cerrar Datos meteorológicos de aviación METAR     LEAL Alicante-Elche Miguel Hernández Airport
Temperatura
21°C Temperatura
15°C Punto de rocío
69% Humedad



Viento
10 KM/H
6 MPH
3 M/S
5 NUDO



100°
E
Condiciones actuales

Parcialmente nublado Parcialmente nublado
Presión 1008.81 (hPa) - 29.79 (inHg)
Visibilidad 6 (milla) - 9.7 (km)
Aeropuerto
Código de aeropuerto LEAL

Localidad: Alicante-Elche Miguel Hernández Airport
Distancia: 60 (km)

Metar:
LEAL 181730Z 10005KT 060V150 9999 FEW018 21/15 Q1009 NOSIG

Hora: 18-05-2024 19:30 CEST